Terminal Aerodrome Forecast
Issued by NWS Glasgow, MT

Home | Current Version | Previous Version | Text Only | Print | Product List | Glossary On
Versions: 1 2 3 4 5 6 7 8 9 10 11 12
000
FTUS45 KGGW 261731
TAFGGW
TAF
KGGW 261731Z 2618/2718 10010KT P6SM VCTS BKN080CB
     FM270300 09014KT P6SM VCTS BKN050CB
     FM271200 10007KT 6SM -SHRA BKN025=

USA.gov is the U.S. government's official web portal to all federal, state and local government web resources and services.